Time;durP1;ratioP1;P1;durP2;ratioP2;P2;SDS_P1;SDS_P2;PMS_P1;PMS_P2;Temp;Humidity;BMP_temperature;BMP_pressure;BME280_temperature;BME280_humidity;BME280_pressure;Samples;Min_cycle;Max_cycle;Signal;HPM_P1;HPM_P2
2022/04/26 03:38:32;;;;;;;15.45;13.85;;;10.10;99.90;;;;;;6129402;23;20212;-87
2022/04/26 03:40:59;;;;;;;15.57;13.98;;;10.20;99.90;;;;;;6137614;23;20548;-88
2022/04/26 03:43:26;;;;;;;15.65;13.48;;;10.30;99.40;;;;;;6138269;23;20219;-88
2022/04/26 03:45:54;;;;;;;15.95;14.23;;;10.30;99.50;;;;;;6113599;23;20224;-87
2022/04/26 03:48:21;;;;;;;15.27;13.68;;;10.40;99.50;;;;;;6138572;23;20180;-88
2022/04/26 03:50:54;;;;;;;15.75;14.15;;;10.40;99.20;;;;;;6139186;23;20231;-87
2022/04/26 03:53:23;;;;;;;16.27;14.40;;;10.30;99.00;;;;;;6138508;23;20271;-88
2022/04/26 03:55:55;;;;;;;15.52;13.98;;;10.10;99.10;;;;;;6140273;23;20319;-87
2022/04/26 03:58:35;;;;;;;14.88;13.27;;;10.00;99.50;;;;;;6140302;23;20203;-87
2022/04/26 04:01:02;;;;;;;15.98;14.27;;;10.00;99.90;;;;;;6140319;23;20199;-87
2022/04/26 04:03:39;;;;;;;15.02;13.48;;;9.90;99.90;;;;;;6140265;23;20172;-87
2022/04/26 04:06:06;;;;;;;16.80;13.55;;;10.00;99.90;;;;;;6252509;22;20168;-87
2022/04/26 04:08:33;;;;;;;17.00;13.40;;;10.10;99.90;;;;;;6247345;22;20184;-87
2022/04/26 04:11:03;;;;;;;14.82;13.32;;;10.10;99.70;;;;;;6296717;22;20228;-89
2022/04/26 04:13:30;;;;;;;15.05;13.48;;;10.00;99.40;;;;;;6298358;22;20188;-87
2022/04/26 04:15:59;;;;;;;14.93;13.43;;;9.90;99.90;;;;;;6293304;22;20232;-87
2022/04/26 04:21:12;;;;;;;14.88;13.38;;;10.10;99.90;;;;;;6292742;22;20213;-87
2022/04/26 04:23:48;;;;;;;14.88;13.32;;;10.20;99.50;;;;;;6266886;22;20179;-88
2022/04/26 04:26:18;;;;;;;14.98;13.43;;;10.10;99.50;;;;;;6293420;22;20597;-87
2022/04/26 04:29:00;;;;;;;15.23;13.55;;;10.00;99.60;;;;;;6267728;22;20232;-87
2022/04/26 04:31:37;;;;;;;17.27;14.35;;;9.90;99.90;;;;;;6293936;22;20232;-88
2022/04/26 04:34:04;;;;;;;14.52;13.13;;;9.90;99.90;;;;;;6294667;22;20160;-87
2022/04/26 04:36:31;;;;;;;14.82;13.32;;;9.90;99.90;;;;;;6295215;22;20200;-87
2022/04/26 04:38:59;;;;;;;14.95;13.35;;;10.10;99.90;;;;;;6242966;22;20602;-88
2022/04/26 04:41:37;;;;;;;14.95;13.27;;;10.30;99.90;;;;;;6294570;22;20193;-89
2022/04/26 04:44:08;;;;;;;13.98;12.48;;;10.30;99.40;;;;;;6295264;22;20645;-88
2022/04/26 04:46:49;;;;;;;14.43;12.93;;;10.40;99.60;;;;;;6242596;22;20175;-87
2022/04/26 04:49:16;;;;;;;13.77;12.38;;;10.40;99.00;;;;;;6268564;22;20169;-90
2022/04/26 04:52:00;;;;;;;13.85;12.45;;;10.40;99.10;;;;;;6267331;22;20175;-87
2022/04/26 04:54:36;;;;;;;15.38;12.82;;;10.30;99.20;;;;;;6294133;22;20204;-88
2022/04/26 04:57:06;;;;;;;14.52;12.98;;;10.30;99.50;;;;;;6292247;22;20180;-88
2022/04/26 05:02:56;;;;;;;15.32;13.35;;;10.40;99.20;;;;;;6294791;22;20196;-89
2022/04/26 05:05:42;;;;;;;14.30;12.85;;;10.30;99.00;;;;;;6294834;22;20173;-88
2022/04/26 05:08:10;;;;;;;13.90;12.50;;;10.30;99.30;;;;;;6295195;22;20220;-87
2022/04/26 05:10:55;;;;;;;13.38;11.98;;;10.40;99.40;;;;;;6295538;22;20157;-88
2022/04/26 05:13:49;;;;;;;12.65;11.27;;;10.50;99.30;;;;;;6295976;22;20207;-88
2022/04/26 05:16:16;;;;;;;13.70;12.27;;;10.70;99.00;;;;;;6295737;22;20191;-89
2022/04/26 05:18:48;;;;;;;13.18;11.77;;;10.80;98.30;;;;;;6295120;22;20168;-88
2022/04/26 05:21:18;;;;;;;12.93;11.68;;;10.80;97.80;;;;;;6296578;22;20157;-88
2022/04/26 05:27:34;;;;;;;12.30;11.00;;;11.00;97.80;;;;;;6293352;22;20176;-87
2022/04/26 05:30:21;;;;;;;12.60;11.27;;;11.30;97.60;;;;;;6292558;22;20179;-87
2022/04/26 05:36:23;;;;;;;11.77;10.57;;;11.30;96.00;;;;;;6295834;22;20638;-88
2022/04/26 05:38:55;;;;;;;12.35;11.05;;;11.20;96.50;;;;;;6261261;22;20186;-89
2022/04/26 05:41:38;;;;;;;12.85;11.50;;;11.10;96.90;;;;;;6268272;22;20250;-89
2022/04/26 05:44:07;;;;;;;12.80;11.52;;;11.10;97.40;;;;;;6269053;22;20222;-89
2022/04/26 05:49:58;;;;;;;12.65;11.45;;;11.10;97.30;;;;;;6293550;22;20175;-89
2022/04/26 05:52:26;;;;;;;13.80;11.50;;;10.90;97.30;;;;;;6294346;22;20221;-88
2022/04/26 05:55:05;;;;;;;12.20;11.00;;;10.90;97.70;;;;;;6294544;22;20251;-89
2022/04/26 05:58:12;;;;;;;12.63;11.32;;;11.00;98.30;;;;;;6295539;22;20203;-90
2022/04/26 06:07:45;;;;;;;12.50;11.25;;;10.90;97.50;;;;;;6293876;22;20177;-88
2022/04/26 06:10:35;;;;;;;13.70;11.02;;;10.80;98.10;;;;;;6266697;22;20214;-87
2022/04/26 06:13:54;;;;;;;11.98;10.77;;;10.80;98.10;;;;;;6292693;22;20628;-88
2022/04/26 06:16:30;;;;;;;12.25;10.95;;;10.90;98.20;;;;;;6265760;22;20165;-88
2022/04/26 06:19:17;;;;;;;13.77;11.48;;;11.00;98.20;;;;;;6290909;22;20180;-88
2022/04/26 06:22:25;;;;;;;12.90;11.10;;;11.10;98.10;;;;;;6263314;22;20200;-88
2022/04/26 06:25:03;;;;;;;12.00;10.75;;;11.20;97.90;;;;;;6290966;22;20171;-87
2022/04/26 06:31:12;;;;;;;12.63;11.32;;;11.20;98.60;;;;;;6291115;22;20147;-88
2022/04/26 06:33:48;;;;;;;10.25;9.15;;;11.40;98.40;;;;;;6266176;22;20172;-88
2022/04/26 06:36:35;;;;;;;10.38;9.30;;;11.50;97.50;;;;;;6266143;22;20156;-89
2022/04/26 06:39:23;;;;;;;9.00;8.07;;;11.60;96.70;;;;;;6293437;22;20263;-88
2022/04/26 06:42:08;;;;;;;9.18;8.27;;;11.60;96.40;;;;;;6291416;22;20192;-87
2022/04/26 06:44:35;;;;;;;8.05;7.25;;;11.70;96.10;;;;;;6292711;22;20168;-88
2022/04/26 06:47:24;;;;;;;8.85;7.95;;;11.80;96.10;;;;;;6268033;22;20179;-88
2022/04/26 07:10:48;;;;;;;8.10;7.30;;;12.50;93.00;;;;;;6085039;23;20539;-87
2022/04/26 07:41:35;;;;;;;7.18;6.47;;;14.20;79.70;;;;;;6075080;23;20222;-86
2022/04/26 12:29:18;;;;;;;3.17;2.47;;;8.90;97.10;;;;;;6288238;22;20147;-92
2022/04/26 14:55:54;;;;;;;3.38;2.20;;;9.80;91.30;;;;;;6292171;22;20494;-89
2022/04/26 16:50:00;;;;;;;3.40;3.10;;;11.50;79.70;;;;;;6271090;22;20192;-90
2022/04/26 19:42:39;;;;;;;4.35;3.95;;;8.50;95.80;;;;;;6293525;22;20696;-90
2022/04/26 19:45:59;;;;;;;5.07;4.28;;;8.60;95.70;;;;;;6295225;22;20213;-90
2022/04/26 19:48:37;;;;;;;5.10;3.83;;;8.70;95.00;;;;;;6295506;22;20177;-90
2022/04/26 19:55:22;;;;;;;5.32;3.85;;;8.90;94.40;;;;;;6172906;23;20195;-90
2022/04/26 20:11:26;;;;;;;4.68;3.85;;;8.90;93.80;;;;;;6236086;23;20154;-91
2022/04/26 20:38:54;;;;;;;7.90;4.07;;;8.20;95.70;;;;;;6065793;23;20204;-92
2022/04/26 21:02:38;;;;;;;4.85;3.95;;;7.90;96.00;;;;;;5973596;23;20211;-92
2022/04/26 21:25:44;;;;;;;6.55;5.25;;;7.90;96.20;;;;;;5932019;23;20258;-93
